Time;durP1;ratioP1;P1;durP2;ratioP2;P2;SDS_P1;SDS_P2;PMS_P1;PMS_P2;Temp;Humidity;BMP_temperature;BMP_pressure;BME280_temperature;BME280_humidity;BME280_pressure;Samples;Min_cycle;Max_cycle;Signal;HPM_P1;HPM_P2
2021/05/05 00:01:14;;;;;;;0.40;0.20;;;;;;;32.33;12.18;97023.72;5071195;28;20400;-88
2021/05/05 00:03:41;;;;;;;0.30;0.20;;;;;;;32.40;12.19;97019.59;5074863;28;20505;-88
2021/05/05 00:06:10;;;;;;;0.30;0.30;;;;;;;32.47;12.17;97019.88;5066810;28;20083;-88
2021/05/05 00:08:36;;;;;;;0.17;0.17;;;;;;;32.41;12.45;97016.25;5070600;28;20029;-88
2021/05/05 00:11:03;;;;;;;0.70;0.30;;;;;;;32.55;12.32;97026.63;5057367;28;20035;-87
2021/05/05 00:13:29;;;;;;;0.20;0.20;;;;;;;32.54;12.26;97013.69;5075082;28;20037;-88
2021/05/05 00:15:55;;;;;;;0.75;0.40;;;;;;;32.46;12.32;97014.72;5073260;28;20110;-87
2021/05/05 00:18:21;;;;;;;0.30;0.30;;;;;;;32.38;12.54;97005.13;5070308;28;20036;-87
2021/05/05 00:20:47;;;;;;;0.20;0.20;;;;;;;32.21;12.51;97007.22;5073299;28;20383;-88
2021/05/05 00:23:13;;;;;;;0.57;0.30;;;;;;;32.21;12.77;97007.22;5070781;28;20482;-88
2021/05/05 00:25:39;;;;;;;0.20;0.20;;;;;;;32.29;12.38;97008.25;5074864;28;20037;-88
2021/05/05 00:28:05;;;;;;;0.35;0.30;;;;;;;32.29;12.66;97006.19;5074810;28;20485;-88
2021/05/05 00:30:32;;;;;;;2.15;0.38;;;;;;;32.23;12.68;96998.94;5074553;28;20125;-87
2021/05/05 00:32:58;;;;;;;0.20;0.20;;;;;;;32.08;12.81;97002.03;5075081;28;20041;-88
2021/05/05 00:35:24;;;;;;;10.38;0.65;;;;;;;31.91;13.15;97006.88;5073593;28;20041;-88
2021/05/05 00:37:50;;;;;;;1.33;0.30;;;;;;;31.82;13.51;97002.22;5073991;28;20382;-87
2021/05/05 00:40:16;;;;;;;0.30;0.30;;;;;;;31.97;13.16;96997.09;5073784;28;20040;-88
2021/05/05 00:42:43;;;;;;;0.50;0.20;;;;;;;32.17;12.83;97003.84;5074510;28;20108;-87
2021/05/05 00:45:12;;;;;;;0.57;0.20;;;;;;;32.17;13.14;96998.16;5038225;28;20428;-88
2021/05/05 00:47:39;;;;;;;0.43;0.30;;;;;;;31.95;13.08;96996.06;5074744;28;20021;-88
2021/05/05 00:50:07;;;;;;;0.20;0.20;;;;;;;31.82;13.44;96992.91;5073855;28;20032;-88
2021/05/05 00:52:34;;;;;;;0.52;0.20;;;;;;;31.89;13.32;96998.09;5062853;28;20044;-88
2021/05/05 00:55:00;;;;;;;0.22;0.20;;;;;;;31.98;13.00;97001.50;5054997;28;20033;-88
2021/05/05 00:57:28;;;;;;;0.75;0.20;;;;;;;32.14;12.83;96997.13;5072661;28;20044;-88
2021/05/05 00:59:54;;;;;;;1.67;0.20;;;;;;;32.12;12.73;97007.44;5073737;28;20028;-88
2021/05/05 01:02:21;;;;;;;1.73;0.20;;;;;;;32.09;13.09;97003.59;5072193;28;20137;-88
2021/05/05 01:04:47;;;;;;;0.63;0.30;;;;;;;32.18;12.79;97002.56;5073227;28;20059;-88
2021/05/05 01:07:13;;;;;;;0.88;0.20;;;;;;;32.35;12.57;97000.50;5074232;28;20046;-88
2021/05/05 01:09:44;;;;;;;0.10;0.10;;;;;;;32.47;12.58;97002.81;5072129;28;20037;-88
2021/05/05 01:12:11;;;;;;;0.25;0.20;;;;;;;32.56;12.88;96996.88;5070737;28;20033;-88
2021/05/05 01:14:37;;;;;;;0.20;0.20;;;;;;;32.68;12.53;96991.97;5073834;28;20040;-88
2021/05/05 01:17:04;;;;;;;0.30;0.30;;;;;;;32.77;12.56;96994.53;5069004;28;20487;-88
2021/05/05 01:19:30;;;;;;;0.57;0.20;;;;;;;32.79;12.62;96994.03;5071445;28;20052;-87
2021/05/05 01:21:57;;;;;;;0.25;0.20;;;;;;;32.70;12.67;96995.06;5072357;28;20041;-87
2021/05/05 01:24:23;;;;;;;0.55;0.30;;;;;;;32.56;12.86;96993.28;5055974;28;20074;-88
2021/05/05 01:26:49;;;;;;;0.20;0.20;;;;;;;32.42;12.81;96985.75;5072965;28;20032;-88
2021/05/05 01:29:15;;;;;;;0.52;0.20;;;;;;;32.08;13.19;96982.16;5072430;28;20028;-88
2021/05/05 01:31:41;;;;;;;0.40;0.22;;;;;;;31.98;13.11;96978.78;5073518;28;20486;-88
2021/05/05 01:34:07;;;;;;;2.03;0.20;;;;;;;31.98;13.16;96981.63;5073417;28;20474;-88
2021/05/05 01:36:36;;;;;;;1.00;0.22;;;;;;;31.97;13.35;96980.06;5073159;28;20402;-88
2021/05/05 01:39:06;;;;;;;0.75;0.30;;;;;;;32.03;13.23;96980.06;5073269;28;20128;-88
2021/05/05 01:41:34;;;;;;;0.20;0.20;;;;;;;32.06;13.50;96976.22;5061852;28;20039;-88
2021/05/05 01:44:00;;;;;;;0.20;0.20;;;;;;;31.91;13.52;96962.22;5066181;28;20056;-88
2021/05/05 01:46:27;;;;;;;0.30;0.30;;;;;;;31.84;13.37;96965.56;5072715;28;20036;-88
2021/05/05 01:48:53;;;;;;;1.08;0.22;;;;;;;31.57;13.69;96966.28;5073464;28;20029;-87
2021/05/05 01:51:19;;;;;;;1.58;0.85;;;;;;;31.47;13.93;96962.13;5073009;28;20043;-88
2021/05/05 01:53:45;;;;;;;0.20;0.20;;;;;;;31.32;14.13;96955.88;5073100;28;20062;-88
2021/05/05 01:56:11;;;;;;;0.20;0.20;;;;;;;30.91;14.48;96954.63;5072991;28;20029;-88
2021/05/05 01:58:37;;;;;;;0.55;0.20;;;;;;;30.86;14.63;96953.28;5073283;28;20058;-88
2021/05/05 02:01:04;;;;;;;2.05;0.30;;;;;;;30.81;14.74;96941.94;5057917;28;20032;-88
2021/05/05 02:03:31;;;;;;;0.20;0.20;;;;;;;30.93;14.66;96946.41;5060745;28;20024;-88
2021/05/05 02:05:57;;;;;;;0.20;0.20;;;;;;;30.87;14.62;96954.09;5070283;28;20039;-87
2021/05/05 02:08:23;;;;;;;0.28;0.28;;;;;;;30.94;14.58;96948.75;5072720;28;20067;-87
2021/05/05 02:10:49;;;;;;;1.05;0.38;;;;;;;31.12;14.29;96947.53;5072949;28;20082;-88
2021/05/05 02:13:15;;;;;;;1.80;0.93;;;;;;;30.96;14.28;96953.91;5072936;28;20036;-88
2021/05/05 02:15:41;;;;;;;0.28;0.28;;;;;;;31.06;14.18;96946.72;5072714;28;20106;-87
2021/05/05 02:18:10;;;;;;;0.20;0.20;;;;;;;31.17;14.08;96947.56;5071312;28;20135;-87
2021/05/05 02:20:37;;;;;;;0.40;0.40;;;;;;;31.42;13.76;96949.47;5064339;28;20037;-87
2021/05/05 02:23:04;;;;;;;3.65;0.40;;;;;;;31.53;13.58;96943.03;5053141;28;20083;-87
2021/05/05 02:25:31;;;;;;;2.10;0.47;;;;;;;31.54;13.72;96947.44;5053985;28;20037;-87
2021/05/05 02:27:57;;;;;;;2.95;0.30;;;;;;;31.50;13.90;96946.13;5061015;28;20086;-87
2021/05/05 02:30:23;;;;;;;0.30;0.30;;;;;;;31.55;13.77;96934.03;5073171;28;20454;-88
2021/05/05 02:32:51;;;;;;;1.08;0.20;;;;;;;31.54;13.77;96935.31;5072404;28;20036;-88
2021/05/05 02:35:17;;;;;;;0.47;0.28;;;;;;;31.43;13.88;96933.22;5065013;28;20029;-88
2021/05/05 02:37:44;;;;;;;0.88;0.30;;;;;;;31.51;13.86;96939.19;5071981;28;20078;-89
2021/05/05 02:40:12;;;;;;;0.30;0.30;;;;;;;31.52;13.86;96927.31;5074648;28;20041;-88
2021/05/05 02:42:38;;;;;;;10.52;1.05;;;;;;;31.35;14.04;96932.91;5076646;28;20090;-88
2021/05/05 02:45:05;;;;;;;1.50;0.30;;;;;;;31.27;14.43;96920.50;5077015;28;20044;-88
2021/05/05 02:47:31;;;;;;;0.30;0.30;;;;;;;31.34;14.09;96924.94;5056758;28;20398;-88
2021/05/05 02:49:57;;;;;;;0.30;0.30;;;;;;;31.14;14.54;96923.03;5070979;28;20474;-88
2021/05/05 02:52:23;;;;;;;0.47;0.40;;;;;;;31.39;14.19;96921.34;5076320;28;20037;-88
2021/05/05 02:54:49;;;;;;;0.52;0.43;;;;;;;31.44;14.27;96920.59;5075771;28;20028;-88
2021/05/05 02:57:15;;;;;;;1.20;0.40;;;;;;;31.31;14.20;96914.59;5076703;28;20407;-88
2021/05/05 02:59:41;;;;;;;4.65;0.40;;;;;;;31.15;14.71;96913.25;5075752;28;22536;-88
2021/05/05 03:02:08;;;;;;;0.98;0.30;;;;;;;31.08;14.50;96910.13;5070414;28;20024;-88
2021/05/05 03:04:34;;;;;;;0.52;0.20;;;;;;;31.10;14.33;96913.22;5075989;28;20100;-88
2021/05/05 03:07:00;;;;;;;0.25;0.20;;;;;;;31.12;14.44;96911.44;5063441;28;20045;-88
2021/05/05 03:09:27;;;;;;;0.52;0.30;;;;;;;30.77;14.84;96911.78;5073969;28;20445;-88
2021/05/05 03:11:55;;;;;;;1.17;0.40;;;;;;;30.50;15.24;96915.22;5076111;28;20063;-88
2021/05/05 03:14:23;;;;;;;0.25;0.25;;;;;;;30.53;15.02;96911.38;5075057;28;20040;-88
2021/05/05 03:16:49;;;;;;;0.50;0.30;;;;;;;30.74;14.57;96915.63;5075091;28;20059;-88
2021/05/05 03:19:15;;;;;;;0.40;0.40;;;;;;;30.87;14.36;96903.06;5076126;28;20036;-88
2021/05/05 03:21:42;;;;;;;0.20;0.20;;;;;;;31.13;13.95;96910.16;5076633;28;20025;-88
2021/05/05 03:24:09;;;;;;;0.60;0.40;;;;;;;31.33;14.11;96914.84;5075704;28;20036;-88
2021/05/05 03:26:35;;;;;;;2.08;0.38;;;;;;;31.30;14.09;96904.53;5072273;28;20044;-88
2021/05/05 03:29:02;;;;;;;0.52;0.30;;;;;;;31.30;14.06;96907.34;5075178;28;20501;-88
2021/05/05 03:31:28;;;;;;;0.63;0.30;;;;;;;31.42;13.97;96903.28;5075679;28;20440;-88
2021/05/05 03:33:57;;;;;;;0.90;0.28;;;;;;;31.34;13.93;96900.16;5076043;28;20033;-88
2021/05/05 03:36:23;;;;;;;0.93;0.30;;;;;;;31.06;14.33;96907.03;5075988;28;20028;-88
2021/05/05 03:38:50;;;;;;;1.52;0.30;;;;;;;30.99;14.28;96905.47;5075208;28;20036;-88
2021/05/05 03:41:16;;;;;;;0.52;0.30;;;;;;;31.17;13.98;96904.25;5075333;28;20459;-88
2021/05/05 03:43:42;;;;;;;0.20;0.20;;;;;;;31.19;14.07;96899.59;5057402;28;20028;-88
2021/05/05 03:46:08;;;;;;;0.28;0.28;;;;;;;31.32;14.22;96897.06;5062924;28;20033;-88
2021/05/05 03:48:34;;;;;;;0.30;0.20;;;;;;;31.37;13.83;96896.28;5056163;28;20044;-88
2021/05/05 03:51:02;;;;;;;0.98;0.38;;;;;;;31.60;13.76;96897.13;5074309;28;20363;-88
2021/05/05 03:53:30;;;;;;;2.20;0.28;;;;;;;31.81;13.50;96897.69;5075048;28;20036;-88
2021/05/05 03:55:56;;;;;;;0.25;0.22;;;;;;;31.87;13.34;96898.47;5057851;28;20055;-88
2021/05/05 03:58:23;;;;;;;0.32;0.30;;;;;;;31.65;13.93;96892.78;5063811;28;20044;-88
2021/05/05 04:00:49;;;;;;;1.13;0.20;;;;;;;31.63;13.88;96898.94;5052635;28;20025;-88
2021/05/05 04:03:15;;;;;;;0.20;0.20;;;;;;;31.50;14.04;96906.41;5069393;28;20029;-87
2021/05/05 04:05:41;;;;;;;0.50;0.30;;;;;;;31.61;13.87;96904.38;5075871;28;20033;-89
2021/05/05 04:08:07;;;;;;;0.52;0.32;;;;;;;31.75;13.51;96906.19;5075244;28;20077;-88
2021/05/05 04:10:33;;;;;;;0.28;0.20;;;;;;;31.91;13.25;96913.94;5075242;28;20509;-88
2021/05/05 04:13:01;;;;;;;0.40;0.35;;;;;;;31.83;13.57;96910.09;5072907;28;20111;-88
2021/05/05 04:15:27;;;;;;;0.40;0.30;;;;;;;32.00;13.40;96913.72;5073910;28;20477;-88
2021/05/05 04:17:53;;;;;;;0.43;0.30;;;;;;;32.02;13.56;96899.78;5071908;28;20565;-88
2021/05/05 04:20:20;;;;;;;0.32;0.32;;;;;;;31.88;13.90;96911.38;5072958;28;20021;-88
2021/05/05 04:22:47;;;;;;;0.30;0.30;;;;;;;31.57;13.96;96908.75;5073744;28;20036;-89
2021/05/05 04:25:15;;;;;;;0.40;0.25;;;;;;;31.56;13.96;96905.13;5075713;28;20052;-89
2021/05/05 04:27:42;;;;;;;0.10;0.10;;;;;;;31.82;14.00;96905.69;5068899;28;20024;-89
2021/05/05 04:30:10;;;;;;;0.32;0.20;;;;;;;31.91;13.91;96898.97;5078943;28;20120;-88
2021/05/05 04:32:36;;;;;;;1.98;0.30;;;;;;;31.85;14.27;96906.72;5070699;28;20440;-92
2021/05/05 04:35:03;;;;;;;0.32;0.22;;;;;;;31.69;14.56;96913.16;5072407;28;20040;-90
2021/05/05 04:37:29;;;;;;;0.50;0.30;;;;;;;31.51;14.45;96910.81;5073152;28;20033;-90
2021/05/05 04:39:55;;;;;;;0.20;0.20;;;;;;;31.78;14.47;96902.34;5073348;28;20071;-90
2021/05/05 04:42:21;;;;;;;0.73;0.40;;;;;;;31.91;14.67;96916.78;5074857;28;20033;-90
2021/05/05 04:44:47;;;;;;;0.30;0.30;;;;;;;32.20;13.86;96909.06;5075026;28;20111;-91
2021/05/05 04:47:13;;;;;;;0.38;0.20;;;;;;;32.23;14.38;96913.72;5060436;28;20041;-90
2021/05/05 04:49:39;;;;;;;0.28;0.28;;;;;;;32.28;14.62;96907.28;5064965;28;20115;-90
2021/05/05 04:52:05;;;;;;;0.35;0.20;;;;;;;32.24;14.55;96915.25;5072861;28;20067;-89
2021/05/05 04:54:31;;;;;;;0.28;0.25;;;;;;;32.14;14.10;96911.16;5072968;28;20508;-88
2021/05/05 04:56:57;;;;;;;0.40;0.20;;;;;;;32.19;14.26;96913.19;5068778;28;20043;-89
2021/05/05 04:59:23;;;;;;;0.50;0.30;;;;;;;32.42;14.20;96903.34;5071181;28;20580;-91
2021/05/05 05:01:49;;;;;;;0.57;0.30;;;;;;;32.55;13.93;96901.56;5073788;28;20056;-90
2021/05/05 05:04:15;;;;;;;0.30;0.30;;;;;;;32.79;13.74;96912.34;5073770;28;20460;-91
2021/05/05 05:06:41;;;;;;;0.20;0.20;;;;;;;32.93;13.98;96908.41;5087496;28;20513;-96
2021/05/05 05:09:08;;;;;;;0.40;0.30;;;;;;;32.93;13.77;96908.41;5090846;28;20386;-91
2021/05/05 05:11:34;;;;;;;0.20;0.17;;;;;;;32.98;13.70;96913.31;5059788;28;20024;-92
2021/05/05 05:14:00;;;;;;;0.30;0.20;;;;;;;33.14;13.83;96917.44;5073517;28;20024;-91
2021/05/05 05:16:26;;;;;;;0.10;0.10;;;;;;;33.10;14.33;96916.91;5070177;28;20078;-92
2021/05/05 05:18:52;;;;;;;0.63;0.30;;;;;;;33.20;15.54;96923.84;5066223;28;20455;-92
2021/05/05 05:21:18;;;;;;;0.20;0.20;;;;;;;33.07;14.90;96924.41;5069046;28;20043;-93
2021/05/05 05:23:45;;;;;;;0.20;0.20;;;;;;;33.05;15.78;96924.16;5071289;28;20032;-90
2021/05/05 05:26:11;;;;;;;0.30;0.30;;;;;;;33.14;16.07;96923.88;5071685;28;20028;-88
2021/05/05 05:28:37;;;;;;;1.10;0.20;;;;;;;33.28;14.43;96934.16;5069405;28;20032;-89
2021/05/05 05:31:04;;;;;;;0.30;0.30;;;;;;;33.40;13.43;96934.88;5060247;28;20111;-94
2021/05/05 05:33:30;;;;;;;3.03;0.20;;;;;;;33.67;13.93;96921.81;5071080;28;20088;-94
2021/05/05 05:35:56;;;;;;;0.73;0.50;;;;;;;33.90;14.19;96926.06;5063746;28;20123;-91
2021/05/05 05:38:22;;;;;;;0.50;0.32;;;;;;;34.13;14.33;96924.59;5065675;28;20444;-92
2021/05/05 05:40:48;;;;;;;1.05;0.60;;;;;;;34.17;13.34;96927.19;5063914;28;20032;-90
2021/05/05 05:43:14;;;;;;;0.98;0.50;;;;;;;34.31;14.17;96931.72;5041563;28;20029;-93
2021/05/05 05:45:41;;;;;;;0.70;0.50;;;;;;;34.32;13.93;96934.03;5059284;28;20040;-93
2021/05/05 05:48:07;;;;;;;0.57;0.40;;;;;;;34.48;14.18;96930.25;5072878;28;20067;-93
2021/05/05 05:50:33;;;;;;;0.32;0.30;;;;;;;34.59;13.57;96926.53;5069974;28;20036;-93
2021/05/05 05:52:59;;;;;;;0.60;0.30;;;;;;;34.63;14.10;96932.72;5066959;28;20091;-93
2021/05/05 05:55:29;;;;;;;2.80;0.30;;;;;;;34.74;13.83;96941.16;5067334;28;20044;-93
2021/05/05 05:57:57;;;;;;;1.57;0.40;;;;;;;34.85;14.01;96934.56;5066984;28;20032;-93
2021/05/05 06:00:24;;;;;;;0.30;0.30;;;;;;;34.82;13.94;96930.72;5071064;28;20059;-93
2021/05/05 06:02:50;;;;;;;0.30;0.30;;;;;;;34.87;13.95;96926.25;5051925;28;20082;-92
2021/05/05 06:05:16;;;;;;;0.40;0.32;;;;;;;34.78;14.02;96921.66;5070043;28;20082;-93
2021/05/05 06:07:43;;;;;;;0.88;0.40;;;;;;;34.63;14.48;96927.81;5069373;28;20028;-93
2021/05/05 06:10:12;;;;;;;0.70;0.50;;;;;;;34.74;14.33;96927.69;5070591;28;20029;-93
2021/05/05 06:12:39;;;;;;;0.50;0.30;;;;;;;34.58;15.34;96930.72;5071512;28;20375;-93
2021/05/05 06:15:07;;;;;;;0.55;0.30;;;;;;;34.59;14.86;96923.69;5068845;28;20025;-93
2021/05/05 06:17:33;;;;;;;0.40;0.30;;;;;;;34.52;14.86;96922.19;5067902;28;20025;-94
2021/05/05 06:19:59;;;;;;;0.90;0.20;;;;;;;34.55;15.04;96924.00;5071001;28;20082;-93
2021/05/05 06:22:25;;;;;;;0.60;0.40;;;;;;;34.27;13.71;96916.97;5071103;28;20033;-93
2021/05/05 06:24:51;;;;;;;0.30;0.30;;;;;;;34.51;14.01;96917.00;5071809;28;20020;-94
2021/05/05 06:27:17;;;;;;;0.60;0.30;;;;;;;34.70;13.95;96912.19;5071177;28;20111;-93
2021/05/05 06:29:43;;;;;;;0.52;0.20;;;;;;;35.00;13.00;96898.59;5071758;28;20086;-94
2021/05/05 06:32:10;;;;;;;1.75;0.30;;;;;;;35.08;13.10;96910.22;5071249;28;20025;-93
2021/05/05 06:34:36;;;;;;;0.30;0.25;;;;;;;35.29;12.75;96905.50;5068190;28;20460;-93
2021/05/05 06:37:03;;;;;;;0.30;0.30;;;;;;;35.54;12.71;96894.84;5067352;28;20123;-93
2021/05/05 06:39:30;;;;;;;0.32;0.25;;;;;;;35.29;11.90;96894.09;5071447;28;20037;-93
2021/05/05 06:41:56;;;;;;;0.20;0.20;;;;;;;34.75;12.46;96895.00;5069673;28;20055;-93
2021/05/05 06:44:23;;;;;;;0.30;0.20;;;;;;;34.93;12.26;96890.66;5068394;28;20493;-93
2021/05/05 06:46:51;;;;;;;0.55;0.30;;;;;;;34.27;14.73;96894.94;5071325;28;20116;-93
2021/05/05 06:49:17;;;;;;;0.30;0.30;;;;;;;34.01;13.35;96881.16;5070255;28;20056;-93
2021/05/05 06:51:43;;;;;;;0.20;0.20;;;;;;;34.53;14.16;96883.84;5070028;28;20112;-93
2021/05/05 06:54:09;;;;;;;0.20;0.20;;;;;;;35.07;13.07;96872.34;5069547;28;20097;-93
2021/05/05 06:56:35;;;;;;;0.20;0.20;;;;;;;35.42;13.33;96872.13;5053398;28;20123;-93
2021/05/05 06:59:01;;;;;;;0.22;0.20;;;;;;;35.92;12.54;96879.16;5071663;28;20120;-93
2021/05/05 07:01:27;;;;;;;0.55;0.30;;;;;;;35.70;13.05;96868.09;5067092;28;20025;-93
2021/05/05 07:03:54;;;;;;;0.20;0.20;;;;;;;36.03;12.35;96862.66;5070408;28;20766;-93
2021/05/05 07:06:20;;;;;;;0.68;0.22;;;;;;;36.25;12.67;96867.19;5064028;28;20394;-93
2021/05/05 07:08:46;;;;;;;0.20;0.17;;;;;;;36.53;12.13;96866.72;5075287;28;20115;-92
2021/05/05 07:11:12;;;;;;;0.52;0.10;;;;;;;36.05;12.47;96854.31;5058254;28;20443;-92
2021/05/05 07:13:38;;;;;;;0.25;0.10;;;;;;;35.66;11.58;96845.56;5057562;28;20086;-92
2021/05/05 07:16:04;;;;;;;0.75;0.22;;;;;;;35.30;12.40;96845.03;5048697;28;20037;-92
2021/05/05 07:18:30;;;;;;;0.20;0.20;;;;;;;35.43;12.80;96847.19;5071394;28;20405;-92
2021/05/05 07:20:58;;;;;;;0.20;0.20;;;;;;;34.78;12.73;96846.72;5070319;28;20130;-90
2021/05/05 07:23:28;;;;;;;0.10;0.10;;;;;;;34.98;11.97;96849.09;5071082;28;20067;-92
2021/05/05 07:25:54;;;;;;;0.10;0.10;;;;;;;34.19;12.99;96851.25;5073405;28;20085;-90
2021/05/05 07:28:20;;;;;;;0.20;0.20;;;;;;;34.90;12.63;96846.06;5064053;28;20048;-90
2021/05/05 07:30:46;;;;;;;0.10;0.10;;;;;;;35.24;11.63;96850.03;5065066;28;20040;-89
2021/05/05 07:33:14;;;;;;;0.15;0.10;;;;;;;35.45;12.01;96838.88;5074848;28;20402;-89
2021/05/05 07:35:46;;;;;;;0.30;0.20;;;;;;;34.91;12.56;96836.22;5075538;28;20024;-91
2021/05/05 07:46:04;;;;;;;0.13;0.13;;;;;;;35.02;12.08;96815.34;5078379;28;20036;-91
2021/05/05 07:48:37;;;;;;;0.77;0.13;;;;;;;34.99;12.56;96819.25;5075739;28;20037;-92
2021/05/05 07:51:04;;;;;;;0.20;0.20;;;;;;;35.34;12.09;96819.03;5058439;28;20078;-89
2021/05/05 07:53:31;;;;;;;0.25;0.15;;;;;;;35.18;12.39;96820.03;5075089;28;20079;-91
2021/05/05 07:55:59;;;;;;;0.20;0.10;;;;;;;35.12;12.65;96814.44;5066047;28;20021;-90
2021/05/05 07:58:26;;;;;;;0.10;0.10;;;;;;;35.03;12.98;96809.09;5057426;28;20481;-90
2021/05/05 08:00:52;;;;;;;0.28;0.13;;;;;;;34.52;12.61;96804.50;5059990;28;20032;-92
2021/05/05 08:03:19;;;;;;;0.17;0.17;;;;;;;34.92;12.82;96808.44;5069445;28;20041;-91
2021/05/05 08:05:45;;;;;;;0.30;0.20;;;;;;;35.25;12.92;96808.00;5074857;28;20046;-90
2021/05/05 08:08:11;;;;;;;0.20;0.20;;;;;;;34.36;13.08;96800.53;5075046;28;20043;-90
2021/05/05 08:10:38;;;;;;;0.28;0.28;;;;;;;34.37;14.14;96802.09;5075658;28;20035;-90
2021/05/05 08:13:05;;;;;;;0.32;0.20;;;;;;;34.49;13.56;96799.88;5075505;28;20016;-90
2021/05/05 08:15:34;;;;;;;0.98;0.40;;;;;;;34.27;13.63;96789.50;5055868;28;20064;-91
2021/05/05 08:18:02;;;;;;;0.65;0.20;;;;;;;34.04;13.00;96794.66;5073510;28;20111;-91
2021/05/05 08:20:28;;;;;;;0.52;0.20;;;;;;;35.21;13.10;96801.84;5075169;28;20527;-88
2021/05/05 08:22:54;;;;;;;0.63;0.30;;;;;;;35.07;13.44;96786.75;5070773;28;20430;-88
2021/05/05 08:25:21;;;;;;;0.30;0.30;;;;;;;35.04;13.39;96787.81;5075951;28;20040;-88
2021/05/05 08:27:47;;;;;;;0.32;0.22;;;;;;;35.92;12.74;96790.59;5068928;28;20036;-88
2021/05/05 08:30:16;;;;;;;0.20;0.20;;;;;;;36.08;12.35;96797.38;5074439;28;20398;-88
2021/05/05 08:32:43;;;;;;;0.20;0.20;;;;;;;34.65;12.48;96785.47;5074636;28;20397;-87
2021/05/05 08:35:10;;;;;;;0.20;0.17;;;;;;;35.38;12.81;96796.66;5067446;28;20035;-89
2021/05/05 08:37:36;;;;;;;0.25;0.25;;;;;;;35.56;12.60;96800.81;5073411;28;20071;-89
2021/05/05 08:40:06;;;;;;;0.60;0.20;;;;;;;35.79;12.00;96791.34;5072957;28;20037;-88
2021/05/05 08:42:32;;;;;;;0.20;0.20;;;;;;;35.17;11.91;96761.44;5061958;28;20047;-87
2021/05/05 08:44:59;;;;;;;0.20;0.15;;;;;;;35.39;12.89;96779.00;5075077;28;20051;-88
2021/05/05 08:47:25;;;;;;;0.20;0.20;;;;;;;35.80;13.03;96777.84;5072609;28;20110;-87
2021/05/05 08:49:52;;;;;;;0.30;0.20;;;;;;;36.34;12.33;96768.81;5062952;28;20047;-89
2021/05/05 08:52:18;;;;;;;0.30;0.30;;;;;;;36.18;11.91;96767.78;5054747;28;20029;-89
2021/05/05 08:54:44;;;;;;;0.10;0.10;;;;;;;36.58;12.41;96757.16;5069135;28;20029;-89
2021/05/05 08:57:10;;;;;;;1.30;0.73;;;;;;;35.96;12.23;96766.13;5071215;28;20032;-89
2021/05/05 08:59:38;;;;;;;1.15;0.38;;;;;;;36.28;12.63;96763.19;5073031;28;20036;-88
2021/05/05 09:02:04;;;;;;;0.45;0.38;;;;;;;36.01;12.75;96758.78;5074029;28;20028;-88
2021/05/05 09:04:30;;;;;;;0.40;0.30;;;;;;;36.57;12.34;96747.06;5073462;28;20401;-89
2021/05/05 09:06:58;;;;;;;0.40;0.25;;;;;;;36.44;12.59;96735.56;5074654;28;20036;-88
2021/05/05 09:09:44;;;;;;;0.70;0.40;;;;;;;35.83;12.13;96737.50;5073949;28;20071;-90
2021/05/05 09:12:22;;;;;;;1.10;0.35;;;;;;;35.54;12.38;96735.69;5071278;28;20488;-90
2021/05/05 09:14:59;;;;;;;0.30;0.20;;;;;;;35.67;12.89;96732.88;5075862;28;20028;-88
2021/05/05 09:17:32;;;;;;;0.75;0.30;;;;;;;35.79;13.02;96727.72;5071090;28;20048;-89
2021/05/05 09:20:16;;;;;;;0.52;0.20;;;;;;;35.46;12.03;96719.69;5066685;28;20187;-90
2021/05/05 09:23:00;;;;;;;0.30;0.30;;;;;;;35.74;13.27;96717.94;5063989;28;20040;-89
2021/05/05 09:25:41;;;;;;;0.30;0.20;;;;;;;35.95;12.17;96718.84;5070424;28;20512;-89
2021/05/05 09:28:14;;;;;;;0.40;0.20;;;;;;;35.27;13.97;96708.34;5070876;28;20121;-89
2021/05/05 09:30:44;;;;;;;0.20;0.13;;;;;;;36.20;12.95;96696.56;5073100;28;20494;-88
2021/05/05 09:33:21;;;;;;;0.28;0.22;;;;;;;36.12;12.13;96689.19;5073841;28;20418;-88
2021/05/05 09:35:56;;;;;;;1.35;0.22;;;;;;;35.86;12.21;96693.56;5072333;28;20590;-88
2021/05/05 09:38:37;;;;;;;0.25;0.20;;;;;;;35.15;12.45;96692.72;5072224;28;20057;-88
2021/05/05 09:41:03;;;;;;;0.63;0.30;;;;;;;35.04;13.59;96687.19;5060285;28;20107;-88
2021/05/05 09:43:36;;;;;;;0.40;0.38;;;;;;;35.07;12.53;96684.03;5073529;28;20094;-87
2021/05/05 09:46:24;;;;;;;0.20;0.20;;;;;;;35.75;13.02;96678.72;5071409;28;20041;-88
2021/05/05 09:48:50;;;;;;;0.93;0.28;;;;;;;35.51;13.04;96685.38;5072190;28;20040;-88
2021/05/05 09:51:16;;;;;;;0.88;0.65;;;;;;;36.58;13.33;96680.72;5072970;28;20029;-87
2021/05/05 09:53:42;;;;;;;0.40;0.20;;;;;;;35.66;12.16;96682.75;5053469;28;20555;-87
2021/05/05 09:56:10;;;;;;;0.15;0.15;;;;;;;35.90;12.79;96673.22;5060689;28;20033;-87
2021/05/05 09:58:39;;;;;;;0.77;0.40;;;;;;;36.21;13.07;96660.94;5054362;28;20380;-87
2021/05/05 10:01:09;;;;;;;0.22;0.22;;;;;;;36.49;12.42;96655.44;5053138;28;20029;-87
2021/05/05 10:03:42;;;;;;;0.30;0.22;;;;;;;36.93;12.04;96658.63;5054288;28;20052;-87
2021/05/05 10:06:25;;;;;;;0.63;0.30;;;;;;;36.41;12.87;96653.78;5073257;28;20047;-87
2021/05/05 10:08:59;;;;;;;1.23;0.20;;;;;;;37.82;11.63;96643.59;5073304;28;20043;-87
2021/05/05 10:11:34;;;;;;;0.30;0.30;;;;;;;37.90;12.21;96637.94;5052838;28;20509;-88
2021/05/05 10:14:08;;;;;;;0.88;0.20;;;;;;;37.76;11.54;96637.22;5053281;28;20494;-87
2021/05/05 10:16:39;;;;;;;0.30;0.30;;;;;;;37.03;11.91;96637.56;5059984;28;20040;-87
2021/05/05 10:19:06;;;;;;;0.40;0.20;;;;;;;36.70;11.61;96626.88;5053187;28;20120;-87
2021/05/05 10:21:42;;;;;;;0.32;0.17;;;;;;;37.66;11.57;96627.63;5062456;28;20056;-87
2021/05/05 10:24:10;;;;;;;0.30;0.30;;;;;;;37.12;11.51;96631.34;5072555;28;20047;-87
2021/05/05 10:26:36;;;;;;;0.70;0.20;;;;;;;36.72;12.18;96627.84;5073316;28;20439;-87
2021/05/05 10:29:04;;;;;;;0.10;0.10;;;;;;;37.22;12.18;96632.41;5072923;28;20052;-86
2021/05/05 10:31:33;;;;;;;1.27;0.28;;;;;;;36.92;11.96;96626.38;5054119;28;20025;-86
2021/05/05 10:34:01;;;;;;;0.63;0.43;;;;;;;36.38;12.16;96621.34;5055583;28;20025;-86
2021/05/05 10:36:39;;;;;;;0.65;0.20;;;;;;;37.36;12.71;96630.22;5067029;28;20115;-87
2021/05/05 10:39:17;;;;;;;0.40;0.20;;;;;;;37.41;11.37;96634.28;5061881;28;20045;-86
2021/05/05 10:41:59;;;;;;;0.10;0.10;;;;;;;37.74;11.14;96630.53;5062649;28;20612;-88
2021/05/05 10:44:53;;;;;;;0.55;0.30;;;;;;;37.76;11.53;96622.16;5071537;28;20040;-88
2021/05/05 10:47:34;;;;;;;0.20;0.13;;;;;;;37.67;12.70;96614.06;5069987;28;20133;-87
2021/05/05 10:50:03;;;;;;;1.20;0.20;;;;;;;37.52;12.02;96625.41;5076754;28;20071;-88
2021/05/05 10:52:41;;;;;;;1.95;0.22;;;;;;;37.31;12.46;96614.72;5053030;28;20048;-87
2021/05/05 10:55:12;;;;;;;0.10;0.10;;;;;;;38.11;12.16;96609.97;5064568;28;20036;-86
2021/05/05 10:57:39;;;;;;;0.38;0.28;;;;;;;38.11;12.41;96604.22;5071962;28;20433;-87
2021/05/05 11:00:10;;;;;;;0.10;0.10;;;;;;;38.11;11.10;96612.06;5072871;28;20119;-86
2021/05/05 11:02:47;;;;;;;0.28;0.22;;;;;;;38.25;11.05;96602.00;5076911;28;20036;-86
2021/05/05 11:05:17;;;;;;;0.10;0.10;;;;;;;37.79;10.21;96595.22;5060626;28;20020;-88
2021/05/05 11:07:46;;;;;;;0.20;0.20;;;;;;;38.33;11.03;96608.53;5075872;28;20032;-86
2021/05/05 11:10:32;;;;;;;0.30;0.10;;;;;;;38.12;9.74;96610.69;5069873;28;20471;-85
2021/05/05 11:13:23;;;;;;;0.68;0.20;;;;;;;38.23;9.86;96614.00;5075901;28;20492;-86
2021/05/05 11:15:51;;;;;;;0.30;0.20;;;;;;;38.04;10.98;96604.94;5048810;28;20056;-86
2021/05/05 11:18:27;;;;;;;2.30;0.20;;;;;;;37.27;10.73;96608.56;5056661;28;20064;-86
2021/05/05 11:20:54;;;;;;;0.52;0.20;;;;;;;37.96;10.85;96604.13;5075718;28;20033;-86
2021/05/05 11:26:22;;;;;;;0.17;0.10;;;;;;;38.75;9.61;96609.09;5076585;28;20036;-85
2021/05/05 11:29:01;;;;;;;1.45;0.20;;;;;;;39.09;9.44;96606.66;5088566;28;20398;-87
2021/05/05 11:31:46;;;;;;;0.30;0.10;;;;;;;38.98;9.27;96599.19;5075697;28;20032;-87
2021/05/05 11:34:24;;;;;;;0.10;0.10;;;;;;;39.20;9.62;96598.47;5073283;28;20033;-86
2021/05/05 11:36:55;;;;;;;0.55;0.10;;;;;;;39.56;10.12;96600.38;5076232;28;20029;-87
2021/05/05 11:39:24;;;;;;;0.10;0.10;;;;;;;39.66;9.33;96599.22;5065650;28;20041;-87
2021/05/05 11:42:02;;;;;;;1.98;0.20;;;;;;;39.49;9.69;96599.03;5071652;28;20473;-87
2021/05/05 11:44:44;;;;;;;0.10;0.10;;;;;;;38.89;8.33;96598.97;5074534;28;20040;-88
2021/05/05 11:47:23;;;;;;;0.73;0.20;;;;;;;38.79;9.34;96601.63;5072080;28;20032;-87
2021/05/05 11:49:51;;;;;;;0.30;0.20;;;;;;;38.64;9.91;96598.72;5077287;28;20044;-86